Time;durP1;ratioP1;P1;durP2;ratioP2;P2;SDS_P1;SDS_P2;PMS_P1;PMS_P2;Temp;Humidity;BMP_temperature;BMP_pressure;BME280_temperature;BME280_humidity;BME280_pressure;Samples;Min_cycle;Max_cycle;Signal;HPM_P1;HPM_P2
2022/09/24 00:00:52;;;;;;;5.65;3.50;;;11.40;89.50;;;;;;4995725;28;20407;-69
2022/09/24 00:03:23;;;;;;;7.20;3.70;;;11.30;89.30;;;;;;4995433;28;20030;-69
2022/09/24 00:05:49;;;;;;;;;;;11.30;89.40;;;;;;4996128;28;20451;-69
2022/09/24 00:08:16;;;;;;;5.53;2.80;;;11.30;88.90;;;;;;4995507;28;19921;-69
2022/09/24 00:10:44;;;;;;;5.13;2.90;;;11.30;88.00;;;;;;4995627;28;20468;-69
2022/09/24 00:13:12;;;;;;;5.50;3.38;;;11.30;88.00;;;;;;4995308;28;20073;-68
2022/09/24 00:15:42;;;;;;;6.55;3.25;;;11.30;88.30;;;;;;4995643;28;20040;-69
2022/09/24 00:18:10;;;;;;;3.58;2.90;;;11.30;88.40;;;;;;4995148;28;20558;-69
2022/09/24 00:20:37;;;;;;;4.70;2.80;;;11.20;88.40;;;;;;4995525;28;20378;-69
2022/09/24 00:23:03;;;;;;;4.10;3.13;;;11.20;88.80;;;;;;4994841;28;20057;-69
2022/09/24 00:28:13;;;;;;;4.10;3.03;;;11.20;90.00;;;;;;4994833;28;20046;-69
2022/09/24 00:30:41;;;;;;;9.30;3.53;;;11.10;90.70;;;;;;4995359;28;20480;-69
2022/09/24 00:33:07;;;;;;;4.13;2.78;;;11.10;90.70;;;;;;4994505;28;20026;-69
2022/09/24 00:35:34;;;;;;;5.68;3.22;;;11.10;90.60;;;;;;4995437;28;20109;-69
2022/09/24 00:38:00;;;;;;;6.10;3.33;;;11.10;90.70;;;;;;4994429;28;20022;-70
2022/09/24 00:40:29;;;;;;;8.43;4.10;;;11.10;90.70;;;;;;4994876;28;20372;-69
2022/09/24 00:42:55;;;;;;;5.38;4.00;;;11.00;90.70;;;;;;4995035;28;20050;-69
2022/09/24 00:45:22;;;;;;;8.35;3.83;;;11.00;90.90;;;;;;4994698;28;20080;-70
2022/09/24 00:47:49;;;;;;;8.00;4.28;;;11.00;91.20;;;;;;4995087;28;20094;-70
2022/09/24 00:50:19;;;;;;;6.40;4.03;;;11.00;91.70;;;;;;4994677;28;20058;-70
2022/09/24 00:53:06;;;;;;;8.82;4.25;;;11.00;92.00;;;;;;4994742;28;20129;-70
2022/09/24 00:55:35;;;;;;;9.35;5.05;;;10.90;92.10;;;;;;4995063;28;20030;-70
2022/09/24 00:58:04;;;;;;;9.18;4.50;;;10.90;92.10;;;;;;4994469;28;20459;-69
2022/09/24 01:00:31;;;;;;;4.57;3.75;;;10.80;92.20;;;;;;4994465;28;20033;-69
2022/09/24 01:03:20;;;;;;;6.93;3.92;;;10.80;92.40;;;;;;4994844;28;20077;-71
2022/09/24 01:05:46;;;;;;;7.15;4.03;;;10.80;92.40;;;;;;4994722;28;20030;-70
2022/09/24 01:08:13;;;;;;;11.52;4.30;;;10.80;92.60;;;;;;4994193;28;20435;-70
2022/09/24 01:10:53;;;;;;;8.48;4.05;;;10.70;92.90;;;;;;4994452;28;20081;-70
2022/09/24 01:13:40;;;;;;;5.55;3.70;;;10.70;93.10;;;;;;4993694;28;20427;-70
2022/09/24 01:16:11;;;;;;;9.65;3.70;;;10.70;93.00;;;;;;4994061;28;20038;-70
2022/09/24 01:18:43;;;;;;;6.57;3.50;;;10.70;92.60;;;;;;4994491;28;20026;-70
2022/09/24 01:21:34;;;;;;;7.60;4.18;;;10.70;92.50;;;;;;4994063;28;20038;-70
2022/09/24 01:24:16;;;;;;;5.70;3.33;;;10.70;92.90;;;;;;4992887;28;20046;-68
2022/09/24 01:27:04;;;;;;;6.88;3.63;;;10.70;93.00;;;;;;4994414;28;20702;-69
2022/09/24 01:29:45;;;;;;;8.90;3.97;;;10.60;93.00;;;;;;4976866;28;20467;-69
2022/09/24 01:32:17;;;;;;;6.00;3.53;;;10.60;93.20;;;;;;4993792;28;20042;-69
2022/09/24 01:34:48;;;;;;;4.50;3.40;;;10.50;93.00;;;;;;4994109;28;20033;-69
2022/09/24 01:37:17;;;;;;;5.30;3.13;;;10.50;93.00;;;;;;4993721;28;20475;-69
2022/09/24 01:39:45;;;;;;;6.20;3.88;;;10.50;93.10;;;;;;4994147;28;20042;-68
2022/09/24 01:42:12;;;;;;;8.98;3.72;;;10.50;93.40;;;;;;4982751;28;20038;-68
2022/09/24 01:44:43;;;;;;;8.05;3.42;;;10.50;93.20;;;;;;4974464;28;20058;-68
2022/09/24 01:47:15;;;;;;;8.25;3.63;;;10.40;93.40;;;;;;4973825;28;20023;-68
2022/09/24 01:49:40;;;;;;;9.27;3.20;;;10.40;93.80;;;;;;4974569;28;20417;-69
2022/09/24 01:52:09;;;;;;;6.35;3.35;;;10.40;94.20;;;;;;4973909;28;20086;-70
2022/09/24 01:54:41;;;;;;;5.55;3.40;;;10.30;94.30;;;;;;4974433;28;20031;-68
2022/09/24 01:57:21;;;;;;;5.30;3.20;;;10.30;94.50;;;;;;4974181;28;20027;-69
2022/09/24 02:00:05;;;;;;;5.55;3.42;;;10.20;94.30;;;;;;4974282;28;20043;-68
2022/09/24 02:02:47;;;;;;;5.70;3.20;;;10.20;94.50;;;;;;4974264;28;20452;-69
2022/09/24 02:05:37;;;;;;;6.30;3.70;;;10.20;94.80;;;;;;4973917;28;20074;-70
2022/09/24 02:08:12;;;;;;;8.30;3.53;;;10.10;95.20;;;;;;4974274;28;20034;-69
2022/09/24 02:10:51;;;;;;;5.70;3.50;;;10.10;95.40;;;;;;4973953;28;20033;-68
2022/09/24 02:13:19;;;;;;;6.50;3.38;;;10.00;95.70;;;;;;4973470;28;20027;-69
2022/09/24 02:15:49;;;;;;;6.65;3.42;;;10.00;95.90;;;;;;4974126;28;20093;-68
2022/09/24 02:18:19;;;;;;;7.25;3.38;;;10.00;95.60;;;;;;4973724;28;20058;-70
2022/09/24 02:20:46;;;;;;;4.37;2.83;;;10.00;95.70;;;;;;4974229;28;20038;-69
2022/09/24 02:23:14;;;;;;;5.43;3.20;;;10.00;95.90;;;;;;4973499;28;20094;-70
2022/09/24 02:26:05;;;;;;;4.47;2.80;;;10.00;95.90;;;;;;4974079;28;20040;-68
2022/09/24 02:28:33;;;;;;;5.25;3.15;;;10.00;95.70;;;;;;4959230;28;20081;-68
2022/09/24 02:31:07;;;;;;;7.60;3.05;;;10.00;95.80;;;;;;4973763;28;20038;-68
2022/09/24 02:36:23;;;;;;;4.93;2.90;;;10.00;96.00;;;;;;4973545;28;20483;-70
2022/09/24 02:38:53;;;;;;;4.55;2.97;;;10.00;96.00;;;;;;4973775;28;20035;-70
2022/09/24 02:41:22;;;;;;;4.47;3.08;;;9.90;96.30;;;;;;4973923;28;20038;-69
2022/09/24 02:43:48;;;;;;;4.93;3.05;;;9.90;96.40;;;;;;4974585;28;20459;-70
2022/09/24 02:46:13;;;;;;;5.97;2.88;;;9.80;96.50;;;;;;4973374;28;20054;-70
2022/09/24 02:48:39;;;;;;;6.35;3.10;;;9.90;96.60;;;;;;4973517;28;20478;-69
2022/09/24 02:51:05;;;;;;;7.07;2.97;;;9.80;96.40;;;;;;4973741;28;20479;-71
2022/09/24 02:53:31;;;;;;;8.18;2.65;;;9.80;96.80;;;;;;4973338;28;20109;-69
2022/09/24 02:55:59;;;;;;;4.32;2.78;;;9.80;96.90;;;;;;4973995;28;20031;-69
2022/09/24 02:58:24;;;;;;;9.40;3.35;;;9.80;97.00;;;;;;4975321;28;20047;-70
2022/09/24 03:00:50;;;;;;;5.05;3.30;;;9.80;97.10;;;;;;4977336;28;20027;-69
2022/09/24 03:03:15;;;;;;;6.25;3.85;;;9.80;97.10;;;;;;4977033;28;20038;-69
2022/09/24 03:05:41;;;;;;;5.78;3.60;;;9.80;97.60;;;;;;4977549;28;20038;-68
2022/09/24 03:08:07;;;;;;;5.00;3.05;;;9.90;97.70;;;;;;4977370;28;20030;-69
2022/09/24 03:10:33;;;;;;;7.30;3.60;;;9.90;97.70;;;;;;4976792;28;20030;-68
2022/09/24 03:12:59;;;;;;;6.70;4.18;;;9.90;97.80;;;;;;4960044;28;20387;-69
2022/09/24 03:15:25;;;;;;;7.50;4.57;;;9.90;98.20;;;;;;4978301;28;20030;-69
2022/09/24 03:17:50;;;;;;;9.32;4.85;;;9.90;98.30;;;;;;4995935;28;20027;-69
2022/09/24 03:20:16;;;;;;;7.13;3.67;;;9.90;98.50;;;;;;4995996;28;20085;-69
2022/09/24 03:22:42;;;;;;;7.82;4.75;;;9.90;98.30;;;;;;4996504;28;20069;-69
2022/09/24 03:25:09;;;;;;;6.55;3.80;;;9.90;98.00;;;;;;4996594;28;20364;-69
2022/09/24 03:27:35;;;;;;;5.15;3.67;;;9.90;98.00;;;;;;4996561;28;20034;-70
2022/09/24 03:32:47;;;;;;;6.95;4.35;;;9.90;98.00;;;;;;4992794;28;20121;-70
2022/09/24 03:35:14;;;;;;;6.38;4.25;;;9.90;97.90;;;;;;4996192;28;20034;-70
2022/09/24 03:37:42;;;;;;;7.35;4.53;;;9.90;98.00;;;;;;4996197;28;20090;-70
2022/09/24 03:40:08;;;;;;;6.63;4.40;;;9.90;98.40;;;;;;4995794;28;20030;-70
2022/09/24 03:42:33;;;;;;;6.32;3.88;;;9.90;98.70;;;;;;4995524;28;20046;-70
2022/09/24 03:44:59;;;;;;;6.88;4.45;;;9.90;98.60;;;;;;4995906;28;20081;-69
2022/09/24 03:47:25;;;;;;;6.93;4.50;;;9.90;98.80;;;;;;4995672;28;20045;-69
2022/09/24 03:49:52;;;;;;;9.00;5.43;;;10.00;99.00;;;;;;4995974;28;20036;-69
2022/09/24 03:52:18;;;;;;;6.70;4.30;;;10.00;98.90;;;;;;4995487;28;20030;-68
2022/09/24 03:54:43;;;;;;;5.03;3.83;;;10.00;98.60;;;;;;4995589;28;20463;-68
2022/09/24 03:57:13;;;;;;;5.78;3.67;;;10.00;98.90;;;;;;4995617;28;20034;-69
2022/09/24 03:59:40;;;;;;;6.07;3.90;;;10.00;98.90;;;;;;4996125;28;20433;-69
2022/09/24 04:02:06;;;;;;;6.50;4.47;;;9.90;98.70;;;;;;4995787;28;20038;-69
2022/09/24 04:04:32;;;;;;;6.13;4.15;;;10.00;98.60;;;;;;4995220;28;20361;-70
2022/09/24 04:06:58;;;;;;;6.80;3.97;;;9.90;97.70;;;;;;4995539;28;20390;-69
2022/09/24 04:09:23;;;;;;;6.32;3.80;;;9.90;97.70;;;;;;4994688;28;20113;-70
2022/09/24 04:11:52;;;;;;;6.05;4.20;;;9.90;97.70;;;;;;4995696;28;20121;-70
2022/09/24 04:14:18;;;;;;;6.97;3.92;;;9.80;97.80;;;;;;4995013;28;20073;-70
2022/09/24 04:16:47;;;;;;;6.78;4.07;;;9.80;97.70;;;;;;4995893;28;20077;-70
2022/09/24 04:19:17;;;;;;;6.65;4.00;;;9.80;97.20;;;;;;4995128;28;20057;-69
2022/09/24 04:21:43;;;;;;;6.97;4.47;;;9.80;97.30;;;;;;4995500;28;20034;-70
2022/09/24 04:24:09;;;;;;;5.00;3.75;;;9.90;97.50;;;;;;4995676;28;20077;-70
2022/09/24 04:26:35;;;;;;;6.40;3.85;;;9.80;97.20;;;;;;4995091;28;20419;-70
2022/09/24 04:29:01;;;;;;;6.13;3.83;;;9.80;97.20;;;;;;4995268;28;20034;-69
2022/09/24 04:31:26;;;;;;;5.60;3.78;;;9.70;97.40;;;;;;4994428;28;20096;-69
2022/09/24 04:33:53;;;;;;;6.60;3.67;;;9.70;97.80;;;;;;4995066;28;20072;-69
2022/09/24 04:36:19;;;;;;;7.45;4.07;;;9.70;97.80;;;;;;4994826;28;20105;-69
2022/09/24 04:38:47;;;;;;;7.75;4.07;;;9.70;97.60;;;;;;4995130;28;20022;-69
2022/09/24 04:41:15;;;;;;;5.82;4.43;;;9.80;97.60;;;;;;4995197;28;20030;-69
2022/09/24 04:43:41;;;;;;;6.68;4.10;;;9.70;97.70;;;;;;4995321;28;20047;-69
2022/09/24 04:46:08;;;;;;;6.45;4.15;;;9.80;97.20;;;;;;4995223;28;20026;-69
2022/09/24 04:48:37;;;;;;;6.07;4.25;;;9.80;97.00;;;;;;4994753;28;20041;-70
2022/09/24 04:51:05;;;;;;;6.30;3.83;;;9.80;97.20;;;;;;4995039;28;20035;-70
2022/09/24 04:53:36;;;;;;;5.95;4.15;;;9.70;96.90;;;;;;4994597;28;20026;-70
2022/09/24 04:56:07;;;;;;;6.55;3.78;;;9.70;97.30;;;;;;4995152;28;20114;-69
2022/09/24 04:58:33;;;;;;;6.45;4.10;;;9.60;97.50;;;;;;4994228;28;20128;-69
2022/09/24 05:01:02;;;;;;;7.00;4.10;;;9.60;97.20;;;;;;4994676;28;20464;-69
2022/09/24 05:03:28;;;;;;;6.45;3.80;;;9.60;97.50;;;;;;4994242;28;20211;-70
2022/09/24 05:05:54;;;;;;;8.70;4.32;;;9.70;97.40;;;;;;4994789;28;20525;-70
2022/09/24 05:08:20;;;;;;;5.63;3.65;;;9.70;97.20;;;;;;4994353;28;20102;-69
2022/09/24 05:10:45;;;;;;;5.65;3.92;;;9.70;97.30;;;;;;4994400;28;20073;-70
2022/09/24 05:13:11;;;;;;;5.97;3.88;;;9.70;97.60;;;;;;4994373;28;20030;-70
2022/09/24 05:15:36;;;;;;;7.25;4.53;;;9.70;97.70;;;;;;4994259;28;20145;-70
2022/09/24 05:18:02;;;;;;;6.13;4.00;;;9.60;98.00;;;;;;4994603;28;20109;-70
2022/09/24 05:20:27;;;;;;;6.40;4.22;;;9.60;97.90;;;;;;4990240;28;20026;-70
2022/09/24 05:22:53;;;;;;;6.10;4.07;;;9.60;98.10;;;;;;4994502;28;20062;-69
2022/09/24 05:25:21;;;;;;;7.40;4.20;;;9.70;98.10;;;;;;4976632;28;20085;-70
2022/09/24 05:27:52;;;;;;;9.07;4.35;;;9.70;98.20;;;;;;4994466;28;20029;-69
2022/09/24 05:30:19;;;;;;;6.45;4.47;;;9.80;98.20;;;;;;4993884;28;20026;-76
2022/09/24 05:32:48;;;;;;;6.47;3.80;;;9.80;97.80;;;;;;4994183;28;20034;-70
2022/09/24 05:35:14;;;;;;;7.95;4.40;;;9.80;98.10;;;;;;4994165;28;20023;-69
2022/09/24 05:37:40;;;;;;;7.65;4.18;;;9.90;98.00;;;;;;4994127;28;20109;-70
2022/09/24 05:42:51;;;;;;;7.15;4.00;;;10.00;97.50;;;;;;4974440;28;20092;-70
2022/09/24 05:45:17;;;;;;;6.63;3.63;;;10.00;97.20;;;;;;4974656;28;20069;-69
2022/09/24 05:47:44;;;;;;;7.78;4.75;;;10.10;97.40;;;;;;4973897;28;20086;-69
2022/09/24 05:50:10;;;;;;;8.35;4.53;;;10.20;96.80;;;;;;4974437;28;20027;-69
2022/09/24 05:52:38;;;;;;;5.90;3.83;;;10.30;96.60;;;;;;4973997;28;20089;-70
2022/09/24 05:55:04;;;;;;;6.97;4.65;;;10.40;96.90;;;;;;4974472;28;20035;-71
2022/09/24 05:57:29;;;;;;;8.45;4.72;;;10.50;96.50;;;;;;4974020;28;20039;-70
2022/09/24 05:59:55;;;;;;;10.65;4.15;;;10.60;96.10;;;;;;4974282;28;20050;-69
2022/09/24 06:02:20;;;;;;;7.70;4.00;;;10.70;96.10;;;;;;4974301;28;20031;-76
2022/09/24 06:04:46;;;;;;;6.82;4.20;;;10.70;96.00;;;;;;4974308;28;20027;-68
2022/09/24 06:07:12;;;;;;;5.53;3.85;;;10.80;95.70;;;;;;4957119;28;20031;-69
2022/09/24 06:09:37;;;;;;;7.72;4.45;;;10.90;95.50;;;;;;4973804;28;20114;-69
2022/09/24 06:12:06;;;;;;;6.32;4.43;;;11.00;95.40;;;;;;4973887;28;20043;-70
2022/09/24 06:14:31;;;;;;;9.95;4.72;;;11.00;95.40;;;;;;4973371;28;20384;-70
2022/09/24 06:16:57;;;;;;;5.50;4.13;;;11.00;95.00;;;;;;4973940;28;20031;-70
2022/09/24 06:19:23;;;;;;;7.55;5.05;;;11.00;95.20;;;;;;4973867;28;20034;-71
2022/09/24 06:21:48;;;;;;;9.65;5.10;;;11.00;94.80;;;;;;4974030;28;20093;-70
2022/09/24 06:24:14;;;;;;;9.60;4.88;;;11.00;95.30;;;;;;4974104;28;20490;-70
2022/09/24 06:26:40;;;;;;;10.05;4.50;;;11.10;95.00;;;;;;4973407;28;20031;-69
2022/09/24 06:29:06;;;;;;;9.05;4.38;;;11.20;94.70;;;;;;4956712;28;20109;-70
2022/09/24 06:31:33;;;;;;;8.05;4.55;;;11.20;94.40;;;;;;4973323;28;20027;-70
2022/09/24 06:33:59;;;;;;;7.65;4.28;;;11.40;93.60;;;;;;4973776;28;20030;-69
2022/09/24 06:36:25;;;;;;;6.88;3.90;;;11.40;93.40;;;;;;4973343;28;20035;-70
2022/09/24 06:38:51;;;;;;;5.07;3.50;;;11.50;92.80;;;;;;4973711;28;20027;-69
2022/09/24 06:41:17;;;;;;;5.63;3.80;;;11.60;92.10;;;;;;4973852;28;20038;-69
2022/09/24 06:43:42;;;;;;;7.18;4.03;;;11.70;92.00;;;;;;4972958;28;20408;-69
2022/09/24 06:46:09;;;;;;;6.18;4.30;;;11.70;91.80;;;;;;4973906;28;20031;-69
2022/09/24 06:48:35;;;;;;;7.03;4.03;;;11.80;91.80;;;;;;4973437;28;20037;-69
2022/09/24 06:51:03;;;;;;;5.07;3.42;;;11.90;91.10;;;;;;4973714;28;20468;-69
2022/09/24 06:53:29;;;;;;;6.47;3.83;;;12.00;91.20;;;;;;4973344;28;20117;-69
2022/09/24 06:55:58;;;;;;;5.38;3.53;;;12.20;91.40;;;;;;4973752;28;20061;-69
2022/09/24 06:58:24;;;;;;;6.20;4.18;;;12.30;90.20;;;;;;4973437;28;20027;-69
2022/09/24 07:00:57;;;;;;;7.47;3.50;;;12.40;89.50;;;;;;4973795;28;20024;-69
2022/09/24 07:03:24;;;;;;;10.23;6.28;;;12.50;89.10;;;;;;4973762;28;20026;-69
2022/09/24 07:05:49;;;;;;;10.52;5.50;;;12.60;88.20;;;;;;4973635;28;20027;-68
2022/09/24 07:08:16;;;;;;;6.75;3.97;;;12.70;87.50;;;;;;4973718;28;20376;-71
2022/09/24 07:10:47;;;;;;;6.00;4.20;;;12.80;87.10;;;;;;4973179;28;20058;-70
2022/09/24 07:13:14;;;;;;;7.88;4.25;;;12.90;87.20;;;;;;4973601;28;20027;-70
2022/09/24 07:15:41;;;;;;;6.47;3.60;;;13.00;87.90;;;;;;4973264;28;20463;-70
2022/09/24 07:18:07;;;;;;;8.10;3.90;;;13.30;86.30;;;;;;4973567;28;20109;-71
2022/09/24 07:20:35;;;;;;;7.28;4.03;;;13.60;86.20;;;;;;4981923;28;20506;-69
2022/09/24 07:23:04;;;;;;;5.80;4.20;;;13.90;85.30;;;;;;4992764;28;20034;-69
2022/09/24 07:25:30;;;;;;;6.95;4.38;;;14.20;82.20;;;;;;4992555;28;20066;-69
2022/09/24 07:28:07;;;;;;;7.70;3.90;;;14.50;80.20;;;;;;4992874;28;20066;-69
2022/09/24 07:30:34;;;;;;;8.65;4.88;;;14.80;77.10;;;;;;4992179;28;20105;-70
2022/09/24 07:33:00;;;;;;;9.02;4.10;;;15.10;76.30;;;;;;4992646;28;20053;-70
2022/09/24 07:35:27;;;;;;;7.57;4.60;;;15.60;73.40;;;;;;4992727;28;20038;-71
2022/09/24 07:38:01;;;;;;;7.03;4.32;;;16.20;73.20;;;;;;4992937;28;20058;-71
2022/09/24 07:40:28;;;;;;;5.32;4.20;;;17.10;69.80;;;;;;4993033;28;20116;-70
2022/09/24 07:42:54;;;;;;;6.70;3.78;;;18.00;65.90;;;;;;4992901;28;20056;-70
2022/09/24 07:45:21;;;;;;;5.53;3.63;;;18.90;63.30;;;;;;4995764;28;20034;-71
2022/09/24 07:47:47;;;;;;;7.13;4.13;;;19.60;59.90;;;;;;4995403;28;20395;-70
2022/09/24 07:50:12;;;;;;;6.55;3.92;;;20.10;57.40;;;;;;4993315;28;20030;-70
2022/09/24 07:52:38;;;;;;;9.32;4.38;;;20.20;56.20;;;;;;4995429;28;20039;-70
2022/09/24 07:55:05;;;;;;;5.90;4.03;;;20.20;57.80;;;;;;4995900;28;20018;-70
2022/09/24 07:57:31;;;;;;;5.95;4.38;;;20.30;55.80;;;;;;4995572;28;20030;-70
2022/09/24 07:59:56;;;;;;;9.93;4.90;;;20.40;55.30;;;;;;4995974;28;20106;-70
2022/09/24 08:02:23;;;;;;;5.20;4.35;;;20.70;53.90;;;;;;4995757;28;20030;-70
2022/09/24 08:04:48;;;;;;;6.03;3.90;;;20.60;54.50;;;;;;4978042;28;20407;-70
2022/09/24 08:07:14;;;;;;;6.25;4.38;;;20.60;53.80;;;;;;4995714;28;20495;-69
2022/09/24 08:09:40;;;;;;;8.88;5.30;;;20.50;53.50;;;;;;4995572;28;20026;-70
2022/09/24 08:12:07;;;;;;;8.30;5.18;;;20.80;53.00;;;;;;4978353;28;20038;-71
2022/09/24 08:14:32;;;;;;;7.05;4.80;;;20.70;52.90;;;;;;4995563;28;20053;-70
2022/09/24 08:16:58;;;;;;;6.28;4.50;;;20.50;52.70;;;;;;4995836;28;20462;-70
2022/09/24 08:19:24;;;;;;;8.57;5.55;;;20.50;53.50;;;;;;4995674;28;20098;-69
2022/09/24 08:21:49;;;;;;;10.38;5.78;;;20.20;53.20;;;;;;4995325;28;20230;-70
2022/09/24 08:24:16;;;;;;;5.78;4.57;;;20.20;54.50;;;;;;4995574;28;20034;-70
2022/09/24 08:26:42;;;;;;;5.95;4.60;;;20.30;54.30;;;;;;4995377;28;20023;-70
2022/09/24 08:29:07;;;;;;;6.68;5.18;;;20.20;55.50;;;;;;4995899;28;20041;-69
2022/09/24 08:31:33;;;;;;;6.10;4.72;;;20.20;55.30;;;;;;4994614;28;20034;-70
2022/09/24 08:34:00;;;;;;;8.32;4.85;;;20.10;54.70;;;;;;4995310;28;20030;-70
2022/09/24 08:36:26;;;;;;;9.00;5.25;;;19.90;54.90;;;;;;4995298;28;20035;-70
2022/09/24 08:38:55;;;;;;;8.98;5.65;;;19.80;55.30;;;;;;4995097;28;20030;-70
2022/09/24 08:41:46;;;;;;;6.78;5.05;;;19.60;55.50;;;;;;4977518;28;20026;-70
2022/09/24 08:47:21;;;;;;;5.60;4.45;;;19.50;56.20;;;;;;4977765;28;20423;-69
2022/09/24 08:47:29;;;;;;;8.45;5.15;;;19.40;55.80;;;;;;4994870;28;20089;-70
2022/09/24 08:50:06;;;;;;;6.63;4.87;;;19.20;56.30;;;;;;4994811;28;20410;-70
2022/09/24 08:53:09;;;;;;;7.85;5.32;;;19.20;57.80;;;;;;4994967;28;20069;-70
2022/09/24 08:55:42;;;;;;;7.20;5.32;;;19.10;56.40;;;;;;4994363;28;20031;-69
2022/09/24 08:58:20;;;;;;;6.75;5.38;;;19.10;58.60;;;;;;4994891;28;20030;-69
2022/09/24 09:01:09;;;;;;;7.55;5.32;;;19.10;57.10;;;;;;4994393;28;20066;-70
2022/09/24 09:03:39;;;;;;;7.15;5.07;;;19.10;57.90;;;;;;4994796;28;20062;-70
2022/09/24 09:06:15;;;;;;;10.23;6.05;;;19.10;57.80;;;;;;4994780;28;20074;-69
2022/09/24 09:08:56;;;;;;;10.38;6.13;;;19.00;57.40;;;;;;4994353;28;20113;-70
2022/09/24 09:11:27;;;;;;;10.60;6.27;;;18.90;56.80;;;;;;4994845;28;20081;-72
2022/09/24 09:14:16;;;;;;;8.50;5.80;;;18.80;58.90;;;;;;4994454;28;20030;-70
2022/09/24 09:16:45;;;;;;;8.18;5.95;;;18.90;58.70;;;;;;4993135;28;20045;-70
2022/09/24 09:19:14;;;;;;;9.45;6.00;;;18.70;58.60;;;;;;4994459;28;20038;-70
2022/09/24 09:21:42;;;;;;;8.15;5.30;;;18.90;58.00;;;;;;4994223;28;20352;-70
2022/09/24 09:24:46;;;;;;;6.47;5.20;;;19.00;59.00;;;;;;4994454;28;20034;-70
2022/09/24 09:27:14;;;;;;;5.47;4.55;;;19.20;58.60;;;;;;4994552;28;20085;-70
2022/09/24 09:29:41;;;;;;;6.47;4.50;;;19.20;57.30;;;;;;4993774;28;20113;-71
2022/09/24 09:32:25;;;;;;;7.20;5.53;;;19.30;56.90;;;;;;4994064;28;20069;-69
2022/09/24 09:34:58;;;;;;;6.63;4.97;;;19.40;57.70;;;;;;4993933;28;20113;-70
2022/09/24 09:38:05;;;;;;;10.40;5.18;;;19.40;56.90;;;;;;4993859;28;20033;-69
2022/09/24 09:41:16;;;;;;;6.57;5.10;;;19.40;57.40;;;;;;4993850;28;20104;-70
2022/09/24 09:43:42;;;;;;;7.90;5.45;;;19.40;56.60;;;;;;4969322;28;20054;-71
2022/09/24 09:46:24;;;;;;;8.48;5.97;;;19.60;57.70;;;;;;4974762;28;20365;-70
2022/09/24 09:48:54;;;;;;;8.32;5.10;;;19.80;56.80;;;;;;4974185;28;20038;-70
2022/09/24 09:51:24;;;;;;;7.50;5.40;;;19.80;56.20;;;;;;4974349;28;20085;-70
2022/09/24 09:53:58;;;;;;;9.52;5.20;;;19.90;56.80;;;;;;4972909;28;20031;-71
2022/09/24 09:56:44;;;;;;;6.80;4.53;;;19.80;56.10;;;;;;4972642;28;20061;-69
2022/09/24 09:59:10;;;;;;;6.97;4.47;;;19.90;56.10;;;;;;4974574;28;20027;-70
2022/09/24 10:01:41;;;;;;;6.93;5.03;;;19.90;56.20;;;;;;4974397;28;20387;-69
2022/09/24 10:04:40;;;;;;;7.38;5.30;;;19.90;54.70;;;;;;4974520;28;20033;-70
2022/09/24 10:07:10;;;;;;;7.13;5.18;;;19.90;55.00;;;;;;4941165;28;20558;-70
2022/09/24 10:09:38;;;;;;;7.60;5.30;;;19.90;55.10;;;;;;4974451;28;20035;-69
2022/09/24 10:12:23;;;;;;;8.30;5.30;;;19.80;55.10;;;;;;4973701;28;20201;-70
2022/09/24 10:15:23;;;;;;;8.43;5.38;;;19.90;56.00;;;;;;4973504;28;20455;-70
2022/09/24 10:17:53;;;;;;;6.60;4.93;;;20.00;55.40;;;;;;4973696;28;20031;-70
2022/09/24 10:20:28;;;;;;;6.53;4.75;;;20.10;55.40;;;;;;4974346;28;20034;-70
2022/09/24 10:23:01;;;;;;;7.72;5.20;;;20.20;55.80;;;;;;4973458;28;20093;-70
2022/09/24 10:25:28;;;;;;;6.05;4.70;;;20.20;54.60;;;;;;4974711;28;20583;-70
2022/09/24 10:30:32;;;;;;;6.97;5.32;;;20.00;55.10;;;;;;4956938;28;20027;-71
2022/09/24 10:31:13;;;;;;;6.13;4.88;;;20.00;55.60;;;;;;4973060;28;20030;-70
2022/09/24 10:33:45;;;;;;;8.45;5.38;;;19.90;55.30;;;;;;4973537;28;20124;-78
2022/09/24 10:36:26;;;;;;;7.55;4.22;;;20.00;55.70;;;;;;4974181;28;20094;-70
2022/09/24 10:39:14;;;;;;;7.00;4.95;;;20.00;55.70;;;;;;4973511;28;20027;-70
2022/09/24 10:41:48;;;;;;;8.60;4.10;;;19.90;55.60;;;;;;4973392;28;20042;-75
2022/09/24 10:44:15;;;;;;;6.43;4.95;;;19.90;55.80;;;;;;4974088;28;20090;-71
2022/09/24 10:46:57;;;;;;;6.00;4.95;;;19.80;56.10;;;;;;4973230;28;20093;-70
2022/09/24 10:49:28;;;;;;;8.55;4.43;;;19.70;56.00;;;;;;4973860;28;20038;-69
2022/09/24 10:52:16;;;;;;;7.72;4.78;;;19.50;55.90;;;;;;4973381;28;20047;-70
2022/09/24 10:55:13;;;;;;;5.97;4.55;;;19.50;57.10;;;;;;4973085;28;20436;-70
2022/09/24 10:58:06;;;;;;;7.72;4.85;;;19.50;57.20;;;;;;4972648;28;20388;-70
2022/09/24 11:00:45;;;;;;;6.88;5.55;;;19.50;57.20;;;;;;4973450;28;20110;-70
2022/09/24 11:03:42;;;;;;;6.75;4.70;;;19.50;57.10;;;;;;4973731;28;20039;-70
2022/09/24 11:06:13;;;;;;;6.18;4.45;;;19.50;57.90;;;;;;4973822;28;20054;-69
2022/09/24 11:08:51;;;;;;;6.45;4.70;;;19.20;57.80;;;;;;4974328;28;20553;-70
2022/09/24 11:11:41;;;;;;;6.82;5.07;;;19.20;58.40;;;;;;4974394;28;20038;-70
2022/09/24 11:14:50;;;;;;;5.28;4.20;;;19.10;59.20;;;;;;4984434;28;20105;-69
2022/09/24 11:17:35;;;;;;;7.20;4.20;;;18.90;59.70;;;;;;4980296;28;20042;-69
2022/09/24 11:20:21;;;;;;;5.82;4.40;;;19.00;60.20;;;;;;4995554;28;20030;-70
2022/09/24 11:23:20;;;;;;;9.20;4.75;;;18.90;59.70;;;;;;4996380;28;20039;-70
2022/09/24 11:26:18;;;;;;;6.80;4.30;;;18.90;59.80;;;;;;4996438;28;20034;-70
2022/09/24 11:28:43;;;;;;;6.32;4.47;;;18.80;61.00;;;;;;4968257;28;20035;-69
2022/09/24 11:31:51;;;;;;;6.60;4.13;;;18.90;60.40;;;;;;4978998;28;20107;-70
2022/09/24 11:34:20;;;;;;;6.32;4.20;;;18.80;60.80;;;;;;4973779;28;20042;-69
2022/09/24 11:36:57;;;;;;;4.82;3.78;;;18.90;61.10;;;;;;4996172;28;20030;-70
2022/09/24 11:39:37;;;;;;;4.90;3.47;;;19.00;61.00;;;;;;4996577;28;20037;-70
2022/09/24 11:42:20;;;;;;;7.45;4.20;;;18.90;60.50;;;;;;4995777;28;20030;-69
2022/09/24 11:44:51;;;;;;;5.63;4.00;;;18.70;61.10;;;;;;4995926;28;20030;-70
2022/09/24 11:47:40;;;;;;;5.38;3.92;;;18.80;61.50;;;;;;4982518;28;20034;-69
2022/09/24 11:50:15;;;;;;;6.72;4.32;;;18.90;62.00;;;;;;4976211;28;20498;-69
2022/09/24 11:52:58;;;;;;;5.65;3.88;;;19.00;61.60;;;;;;4976609;28;20053;-69
2022/09/24 11:55:35;;;;;;;8.55;3.80;;;19.10;61.20;;;;;;4976752;28;20054;-69
2022/09/24 11:58:23;;;;;;;6.30;3.83;;;19.20;60.70;;;;;;4976333;28;20027;-69
2022/09/24 12:01:02;;;;;;;8.00;4.47;;;19.20;61.10;;;;;;4965685;28;20047;-70
2022/09/24 12:03:43;;;;;;;6.75;4.38;;;19.20;61.00;;;;;;4976825;28;20081;-69
2022/09/24 12:06:18;;;;;;;7.55;3.88;;;19.20;61.50;;;;;;4976210;28;20030;-70
2022/09/24 12:08:55;;;;;;;6.22;4.13;;;19.20;61.20;;;;;;4976515;28;20066;-70
2022/09/24 12:11:40;;;;;;;8.15;4.18;;;19.20;61.20;;;;;;4976440;28;20062;-70
2022/09/24 12:14:16;;;;;;;10.80;4.72;;;19.20;61.50;;;;;;4975915;28;20031;-70
2022/09/24 12:16:44;;;;;;;6.95;3.75;;;19.30;61.20;;;;;;4976097;28;20074;-70
2022/09/24 12:19:22;;;;;;;5.38;3.60;;;19.40;61.50;;;;;;4975765;28;20026;-69
2022/09/24 12:21:51;;;;;;;7.38;4.00;;;19.30;61.00;;;;;;4958855;28;20486;-70
2022/09/24 12:24:34;;;;;;;5.75;3.92;;;19.40;61.00;;;;;;4975985;28;20031;-69
2022/09/24 12:27:06;;;;;;;7.13;4.03;;;19.50;61.00;;;;;;4975852;28;20027;-69
2022/09/24 12:32:55;;;;;;;6.10;4.00;;;19.40;61.00;;;;;;4923133;28;20048;-69
2022/09/24 12:35:21;;;;;;;5.45;3.65;;;19.40;61.10;;;;;;4958576;28;20479;-70
2022/09/24 12:37:50;;;;;;;4.97;3.42;;;19.30;61.50;;;;;;4975937;28;20055;-69
2022/09/24 12:40:59;;;;;;;4.68;3.55;;;19.20;61.80;;;;;;4976158;28;20066;-71
2022/09/24 12:43:39;;;;;;;4.25;3.50;;;19.20;62.20;;;;;;4975537;28;20054;-70
2022/09/24 12:46:08;;;;;;;4.53;3.75;;;19.20;62.30;;;;;;4975516;28;20022;-69
2022/09/24 12:48:37;;;;;;;4.95;3.70;;;19.10;62.20;;;;;;4975886;28;20034;-69
2022/09/24 12:51:05;;;;;;;4.50;3.75;;;19.10;62.60;;;;;;4975200;28;20029;-69
2022/09/24 12:53:36;;;;;;;6.25;3.45;;;19.10;62.80;;;;;;4975527;28;20026;-69
2022/09/24 12:56:03;;;;;;;;;;;19.00;63.00;;;;;;4975546;28;20034;-69
2022/09/24 12:58:39;;;;;;;6.10;3.88;;;19.10;63.30;;;;;;4975602;28;20275;-69
2022/09/24 13:01:29;;;;;;;5.53;4.00;;;19.00;63.70;;;;;;4974976;28;20428;-69
2022/09/24 13:04:27;;;;;;;4.63;3.53;;;18.90;64.00;;;;;;4974785;28;20500;-70
2022/09/24 13:06:53;;;;;;;8.30;3.08;;;18.70;64.80;;;;;;4975103;28;20106;-71
2022/09/24 13:09:34;;;;;;;5.65;3.65;;;18.80;65.00;;;;;;4975136;28;20035;-70
2022/09/24 13:12:01;;;;;;;;;;;18.80;64.70;;;;;;4974918;28;20042;-71
2022/09/24 13:14:30;;;;;;;6.65;3.40;;;18.90;64.80;;;;;;4975219;28;20006;-70
2022/09/24 13:16:56;;;;;;;5.32;3.70;;;18.80;64.60;;;;;;4974666;28;20030;-70
2022/09/24 13:19:40;;;;;;;4.22;3.28;;;18.80;64.40;;;;;;4974979;28;20158;-70
2022/09/24 13:22:27;;;;;;;4.85;3.05;;;18.80;64.80;;;;;;4974840;28;20042;-69
2022/09/24 13:25:04;;;;;;;5.25;3.05;;;18.80;64.20;;;;;;4993715;28;20026;-70
2022/09/24 13:27:30;;;;;;;4.80;3.00;;;18.70;64.00;;;;;;4994619;28;20077;-69
2022/09/24 13:30:07;;;;;;;3.75;2.80;;;18.80;64.10;;;;;;4993862;28;20431;-70